createdAt,value
2019-02-06T00:01:44.382Z,98760.45
2019-02-06T00:04:15.415Z,98763.07
2019-02-06T00:06:42.287Z,98756.59
2019-02-06T00:09:12.808Z,98754.43
2019-02-06T00:11:40.455Z,98760.91
2019-02-06T00:14:08.054Z,98753.08
2019-02-06T00:16:35.809Z,98751.39
2019-02-06T00:19:03.807Z,98758.29
2019-02-06T00:21:31.473Z,98752.11
2019-02-06T00:23:59.307Z,98758.57
2019-02-06T00:26:26.974Z,98769.14
2019-02-06T00:28:54.617Z,98768.30
2019-02-06T00:31:22.307Z,98773.45
2019-02-06T00:33:49.961Z,98767.84
2019-02-06T00:36:17.600Z,98769.20
2019-02-06T00:38:45.234Z,98770.02
2019-02-06T00:41:13.142Z,98763.09
2019-02-06T00:43:41.100Z,98768.30
2019-02-06T00:46:09.060Z,98767.00
2019-02-06T00:48:36.651Z,98760.51
2019-02-06T00:51:04.253Z,98773.50
2019-02-06T00:53:31.948Z,98770.94
2019-02-06T00:55:59.862Z,98771.81
2019-02-06T00:58:27.789Z,98778.77
2019-02-06T01:00:55.716Z,98771.39
2019-02-06T01:03:23.679Z,98777.89
2019-02-06T01:05:51.347Z,98779.16
2019-02-06T01:08:19.001Z,98756.55
2019-02-06T01:10:46.786Z,98771.69
2019-02-06T01:13:14.534Z,98768.14
2019-02-06T01:15:42.271Z,98769.81
2019-02-06T01:18:10.395Z,98765.41
2019-02-06T01:20:38.336Z,98765.11
2019-02-06T01:23:06.455Z,98764.76
2019-02-06T01:25:34.573Z,98757.84
2019-02-06T01:28:02.659Z,98754.83
2019-02-06T01:30:36.921Z,98757.84
2019-02-06T01:33:04.885Z,98757.78
2019-02-06T01:35:33.048Z,98753.06
2019-02-06T01:38:01.075Z,98753.51
2019-02-06T01:40:29.818Z,98756.02
2019-02-06T01:42:57.994Z,98755.06
2019-02-06T01:45:26.070Z,98752.11
2019-02-06T01:47:54.368Z,98746.95
2019-02-06T01:50:22.538Z,98745.66
2019-02-06T01:52:50.371Z,98746.51
2019-02-06T01:55:18.617Z,98743.07
2019-02-06T01:57:46.644Z,98736.17
2019-02-06T02:00:17.303Z,98740.42
2019-02-06T02:02:45.256Z,98742.14
2019-02-06T02:05:14.802Z,98743.36
2019-02-06T02:07:42.711Z,98746.73
2019-02-06T02:10:10.593Z,98746.29
2019-02-06T02:12:38.578Z,98738.98
2019-02-06T02:15:08.553Z,98734.19
2019-02-06T02:17:36.264Z,98741.45
2019-02-06T02:20:06.933Z,98747.39
2019-02-06T02:22:37.435Z,98748.90
2019-02-06T02:25:05.808Z,98747.97
2019-02-06T02:27:33.750Z,98743.61
2019-02-06T02:30:03.828Z,98740.50
2019-02-06T02:32:31.920Z,98738.31
2019-02-06T02:34:59.931Z,98740.09
2019-02-06T02:37:28.168Z,98739.70
2019-02-06T02:39:56.143Z,98738.52
2019-02-06T02:42:24.012Z,98734.61
2019-02-06T02:44:52.107Z,98730.76
2019-02-06T02:47:20.200Z,98727.27
2019-02-06T02:49:47.989Z,98731.16
2019-02-06T02:52:16.039Z,98732.02
2019-02-06T02:54:44.070Z,98737.62
2019-02-06T02:57:11.933Z,98733.28
2019-02-06T02:59:39.954Z,98735.87
2019-02-06T03:02:21.288Z,98742.70
2019-02-06T03:04:53.859Z,98738.31
2019-02-06T03:07:21.629Z,98730.43
2019-02-06T03:09:49.512Z,98739.58
2019-02-06T03:12:18.251Z,98743.30
2019-02-06T03:14:46.562Z,98737.48
2019-02-06T03:17:14.553Z,98749.21
2019-02-06T03:19:44.229Z,98744.91
2019-02-06T03:22:12.526Z,98747.98
2019-02-06T03:24:41.172Z,98754.84
2019-02-06T03:27:09.244Z,98755.25
2019-02-06T03:29:37.454Z,98749.66
2019-02-06T03:32:05.529Z,98753.16
2019-02-06T03:34:33.688Z,98754.00
2019-02-06T03:37:04.046Z,98751.41
2019-02-06T03:39:36.093Z,98746.27
2019-02-06T03:42:04.578Z,98753.58
2019-02-06T03:44:32.632Z,98753.64
2019-02-06T03:47:00.550Z,98749.73
2019-02-06T03:49:28.693Z,98757.48
2019-02-06T03:51:56.377Z,98757.52
2019-02-06T03:54:24.431Z,98755.77
2019-02-06T03:56:52.337Z,98764.86
2019-02-06T03:59:20.234Z,98755.29
2019-02-06T04:01:48.073Z,98759.63
2019-02-06T04:04:17.039Z,98756.91
2019-02-06T04:06:53.370Z,98755.52
2019-02-06T04:09:14.819Z,98755.34
2019-02-06T04:11:42.676Z,98758.73
2019-02-06T04:14:10.543Z,98763.91
2019-02-06T04:16:38.483Z,98766.11
2019-02-06T04:19:06.732Z,98762.68
2019-02-06T04:21:34.705Z,98760.55
2019-02-06T04:24:03.886Z,98750.87
2019-02-06T04:26:31.893Z,98770.44
2019-02-06T04:29:00.118Z,98770.75
2019-02-06T04:31:27.920Z,98773.41
2019-02-06T04:33:55.891Z,98765.58
2019-02-06T04:36:23.771Z,98766.45
2019-02-06T04:38:51.767Z,98769.08
2019-02-06T04:41:19.707Z,98766.94
2019-02-06T04:43:47.671Z,98766.91
2019-02-06T04:46:15.806Z,98767.84
2019-02-06T04:48:43.802Z,98769.56
2019-02-06T04:51:11.689Z,98778.64
2019-02-06T04:53:39.604Z,98768.34
2019-02-06T04:56:07.506Z,98772.28
2019-02-06T04:58:35.471Z,98763.13
2019-02-06T05:01:03.647Z,98768.30
2019-02-06T05:03:32.107Z,98773.86
2019-02-06T05:05:59.902Z,98771.59
2019-02-06T05:08:27.850Z,98772.05
2019-02-06T05:10:55.801Z,98774.52
2019-02-06T05:13:23.846Z,98768.13
2019-02-06T05:15:51.849Z,98773.23
2019-02-06T05:18:19.741Z,98771.91
2019-02-06T05:20:48.128Z,98779.77
2019-02-06T05:23:16.305Z,98777.11
2019-02-06T05:25:44.284Z,98777.56
2019-02-06T05:28:12.296Z,98776.20
2019-02-06T05:30:40.397Z,98777.56
2019-02-06T05:33:09.464Z,98783.56
2019-02-06T05:35:37.586Z,98785.66
2019-02-06T05:38:05.768Z,98787.83
2019-02-06T05:40:33.885Z,98788.28
2019-02-06T05:43:01.920Z,98798.09
2019-02-06T05:45:30.064Z,98792.05
2019-02-06T05:47:58.159Z,98794.14
2019-02-06T05:50:26.151Z,98793.69
2019-02-06T05:52:54.012Z,98802.00
2019-02-06T05:55:21.924Z,98801.45
2019-02-06T05:57:50.056Z,98797.95
2019-02-06T06:00:22.562Z,98807.45
2019-02-06T06:02:50.517Z,98810.48
2019-02-06T06:05:18.788Z,98809.08
2019-02-06T06:07:46.717Z,98815.61
2019-02-06T06:10:15.293Z,98812.23
2019-02-06T06:12:43.615Z,98820.78
2019-02-06T06:15:12.705Z,98818.23
2019-02-06T06:17:40.820Z,98824.20
2019-02-06T06:20:09.516Z,98828.12
2019-02-06T06:22:37.424Z,98830.70
2019-02-06T06:25:05.661Z,98832.48
2019-02-06T06:27:33.732Z,98835.03
2019-02-06T06:30:01.924Z,98842.02
2019-02-06T06:32:31.948Z,98835.60
2019-02-06T06:34:59.986Z,98844.64
2019-02-06T06:37:28.067Z,98841.06
2019-02-06T06:39:56.098Z,98836.08
2019-02-06T06:42:24.399Z,98831.44
2019-02-06T06:44:52.666Z,98830.55
2019-02-06T06:47:22.494Z,98837.31
2019-02-06T06:49:50.480Z,98838.09
2019-02-06T06:52:18.543Z,98837.98
2019-02-06T06:54:46.576Z,98841.44
2019-02-06T06:57:14.818Z,98838.28
2019-02-06T06:59:42.955Z,98839.45
2019-02-06T07:02:11.102Z,98843.11
2019-02-06T07:04:39.451Z,98835.99
2019-02-06T07:07:07.599Z,98843.91
2019-02-06T07:09:35.572Z,98840.34
2019-02-06T07:12:03.560Z,98844.20
2019-02-06T07:14:31.748Z,98844.77
2019-02-06T07:16:59.947Z,98842.36
2019-02-06T07:19:27.956Z,98845.13
2019-02-06T07:21:56.269Z,98836.94
2019-02-06T07:24:24.172Z,98841.36
2019-02-06T07:26:52.204Z,98839.69
2019-02-06T07:29:20.275Z,98848.85
2019-02-06T07:31:48.540Z,98849.28
2019-02-06T07:34:16.973Z,98851.42
2019-02-06T07:36:45.308Z,98843.98
2019-02-06T07:39:13.317Z,98843.48
2019-02-06T07:41:41.452Z,98844.28
2019-02-06T07:44:09.378Z,98851.34
2019-02-06T07:46:38.393Z,98841.73
2019-02-06T07:49:06.318Z,98844.53
2019-02-06T07:51:34.519Z,98841.30
2019-02-06T07:54:02.861Z,98837.15
2019-02-06T07:56:31.015Z,98833.78
2019-02-06T07:58:59.150Z,98839.52
2019-02-06T08:01:27.192Z,98828.27
2019-02-06T08:03:55.621Z,98839.24
2019-02-06T08:06:23.768Z,98825.78
2019-02-06T08:08:51.808Z,98834.57
2019-02-06T08:11:20.102Z,98829.94
2019-02-06T08:13:48.139Z,98815.64
2019-02-06T08:16:15.940Z,98830.08
2019-02-06T08:18:43.778Z,98838.48
2019-02-06T08:21:11.963Z,98834.98
2019-02-06T08:23:40.020Z,98833.11
2019-02-06T08:26:08.320Z,98828.16
2019-02-06T08:28:36.655Z,98823.50
2019-02-06T08:31:04.579Z,98815.27
2019-02-06T08:33:32.235Z,98815.12
2019-02-06T08:35:59.936Z,98814.29
2019-02-06T08:38:28.166Z,98812.77
2019-02-06T08:40:56.266Z,98803.63
2019-02-06T08:43:24.747Z,98808.52
2019-02-06T08:45:54.036Z,98809.66
2019-02-06T08:48:22.085Z,98800.72
2019-02-06T08:50:50.183Z,98801.20
2019-02-06T08:53:18.125Z,98799.95
2019-02-06T08:55:46.093Z,98796.60
2019-02-06T08:58:14.191Z,98796.52
2019-02-06T09:00:42.294Z,98792.41
2019-02-06T09:03:10.872Z,98798.54
2019-02-06T09:05:39.086Z,98798.23
2019-02-06T09:08:07.483Z,98797.40
2019-02-06T09:10:35.764Z,98802.81
2019-02-06T09:13:05.541Z,98804.84
2019-02-06T09:15:33.984Z,98808.78
2019-02-06T09:18:01.931Z,98805.03
2019-02-06T09:20:30.586Z,98804.52
2019-02-06T09:22:59.586Z,98813.17
2019-02-06T09:25:27.697Z,98809.09
2019-02-06T09:27:56.059Z,98806.73
2019-02-06T09:30:25.597Z,98801.92
2019-02-06T09:32:53.802Z,98808.89
2019-02-06T09:35:22.014Z,98805.28
2019-02-06T09:37:50.061Z,98807.60
2019-02-06T09:40:19.953Z,98798.10
2019-02-06T09:42:48.247Z,98799.05
2019-02-06T09:45:16.320Z,98803.87
2019-02-06T09:47:44.362Z,98795.18
2019-02-06T09:50:15.808Z,98788.98
2019-02-06T09:52:43.929Z,98794.77
2019-02-06T09:55:11.766Z,98790.47
2019-02-06T09:57:39.852Z,98785.89
2019-02-06T10:00:11.739Z,98784.91
2019-02-06T10:02:39.311Z,98790.41
2019-02-06T10:05:07.545Z,98786.46
2019-02-06T10:07:35.785Z,98787.06
2019-02-06T10:10:04.452Z,98786.27
2019-02-06T10:12:32.118Z,98773.10
2019-02-06T10:14:59.772Z,98784.85
2019-02-06T10:17:27.461Z,98781.17
2019-02-06T10:19:55.167Z,98778.22
2019-02-06T10:22:22.813Z,98778.78
2019-02-06T10:24:50.502Z,98776.08
2019-02-06T10:27:18.357Z,98767.23
2019-02-06T10:29:45.964Z,98763.39
2019-02-06T10:32:13.711Z,98763.05
2019-02-06T10:34:41.471Z,98758.20
2019-02-06T10:37:09.141Z,98760.36
2019-02-06T10:39:36.869Z,98752.56
2019-02-06T10:42:04.494Z,98752.08
2019-02-06T10:44:32.170Z,98747.05
2019-02-06T10:46:59.882Z,98734.53
2019-02-06T10:49:27.598Z,98746.06
2019-02-06T10:51:55.353Z,98744.95
2019-02-06T10:54:23.025Z,98735.89
2019-02-06T10:56:50.600Z,98741.88
2019-02-06T10:59:19.283Z,98741.99
2019-02-06T11:01:47.499Z,98735.41
2019-02-06T11:04:15.137Z,98730.56
2019-02-06T11:06:42.905Z,98729.59
2019-02-06T11:09:10.709Z,98729.17
2019-02-06T11:11:38.373Z,98716.67
2019-02-06T11:14:06.350Z,98717.92
2019-02-06T11:16:33.966Z,98714.13
2019-02-06T11:19:02.191Z,98717.33
2019-02-06T11:21:29.826Z,98704.38
2019-02-06T11:23:57.879Z,98711.19
2019-02-06T11:26:25.965Z,98699.34
2019-02-06T11:28:55.459Z,98704.19
2019-02-06T11:31:23.371Z,98692.41
2019-02-06T11:33:51.501Z,98690.50
2019-02-06T11:36:24.271Z,98694.67
2019-02-06T11:38:50.066Z,98681.09
2019-02-06T11:41:17.662Z,98673.56
2019-02-06T11:43:45.288Z,98667.83
2019-02-06T11:46:12.850Z,98664.05
2019-02-06T11:48:43.271Z,98655.28
2019-02-06T11:51:09.879Z,98653.05
2019-02-06T11:53:37.505Z,98645.14
2019-02-06T11:56:05.136Z,98640.53
2019-02-06T11:58:32.778Z,98641.22
2019-02-06T12:01:07.205Z,98641.25
2019-02-06T12:03:35.106Z,98638.19
2019-02-06T12:06:02.859Z,98643.71
2019-02-06T12:08:31.346Z,98637.83
2019-02-06T12:10:59.035Z,98639.52
2019-02-06T12:13:26.738Z,98637.60
2019-02-06T12:15:54.607Z,98630.48
2019-02-06T12:18:22.290Z,98614.45
2019-02-06T12:20:49.930Z,98621.70
2019-02-06T12:23:17.539Z,98618.58
2019-02-06T12:25:45.596Z,98612.00
2019-02-06T12:28:13.298Z,98611.61
2019-02-06T12:30:41.740Z,98602.95
2019-02-06T12:33:10.356Z,98604.77
2019-02-06T12:35:37.952Z,98608.58
2019-02-06T12:38:05.629Z,98608.97
2019-02-06T12:40:33.269Z,98601.56
2019-02-06T12:43:00.856Z,98595.95
2019-02-06T12:45:30.207Z,98602.31
2019-02-06T12:47:57.905Z,98594.48
2019-02-06T12:50:25.681Z,98594.59
2019-02-06T12:52:57.154Z,98583.24
2019-02-06T12:55:26.276Z,98578.72
2019-02-06T12:57:53.806Z,98572.26
2019-02-06T13:00:23.938Z,98567.02
2019-02-06T13:02:51.764Z,98580.73
2019-02-06T13:05:19.401Z,98575.80
2019-02-06T13:07:47.005Z,98574.81
2019-02-06T13:10:15.085Z,98571.15
2019-02-06T13:12:42.643Z,98568.17
2019-02-06T13:15:11.248Z,98573.15
2019-02-06T13:17:38.855Z,98574.38
2019-02-06T13:20:11.692Z,98579.86
2019-02-06T13:22:40.420Z,98571.89
2019-02-06T13:25:08.734Z,98564.16
2019-02-06T13:27:36.361Z,98571.79
2019-02-06T13:30:07.005Z,98573.16
2019-02-06T13:32:34.544Z,98566.52
2019-02-06T13:35:02.289Z,98569.55
2019-02-06T13:37:29.848Z,98559.98
2019-02-06T13:39:57.721Z,98558.08
2019-02-06T13:42:25.422Z,98554.80
2019-02-06T13:44:53.006Z,98557.05
2019-02-06T13:47:20.482Z,98551.75
2019-02-06T13:49:48.124Z,98550.05
2019-02-06T13:52:15.684Z,98551.89
2019-02-06T13:54:43.277Z,98550.88
2019-02-06T13:57:10.860Z,98546.91
2019-02-06T13:59:38.561Z,98550.76
2019-02-06T14:02:06.495Z,98544.27
2019-02-06T14:04:34.036Z,98537.23
2019-02-06T14:07:01.573Z,98549.64
2019-02-06T14:09:29.167Z,98541.82
2019-02-06T14:11:56.818Z,98547.69
2019-02-06T14:14:26.908Z,98545.82
2019-02-06T14:16:54.976Z,98552.13
2019-02-06T14:19:22.601Z,98548.31
2019-02-06T14:21:50.242Z,98545.63
2019-02-06T14:24:48.738Z,98548.85
2019-02-06T14:27:58.647Z,98547.75
2019-02-06T14:31:22.873Z,98551.41
2019-02-06T14:34:43.975Z,98549.58
2019-02-06T14:37:41.662Z,98545.60
2019-02-06T14:40:25.765Z,98549.48
2019-02-06T14:43:35.706Z,98550.46
2019-02-06T14:47:03.468Z,98551.55
2019-02-06T14:50:04.127Z,98545.53
2019-02-06T14:53:12.265Z,98548.02
2019-02-06T14:56:32.851Z,98543.52
2019-02-06T14:59:30.354Z,98529.90
2019-02-06T15:02:51.827Z,98546.26
2019-02-06T15:06:03.399Z,98548.95
2019-02-06T15:09:22.181Z,98556.09
2019-02-06T15:12:24.988Z,98558.39
2019-02-06T15:15:21.358Z,98560.47
2019-02-06T15:18:15.919Z,98549.38
2019-02-06T15:20:59.735Z,98556.52
2019-02-06T15:23:50.937Z,98563.78
2019-02-06T15:27:03.657Z,98564.27
2019-02-06T15:30:05.239Z,98561.92
2019-02-06T15:33:16.491Z,98564.42
2019-02-06T15:36:29.174Z,98567.02
2019-02-06T15:39:35.696Z,98567.20
2019-02-06T15:42:49.490Z,98566.41
2019-02-06T15:45:49.753Z,98568.02
2019-02-06T15:48:56.173Z,98567.02
2019-02-06T15:51:42.764Z,98569.16
2019-02-06T15:55:00.799Z,98577.66
2019-02-06T15:57:36.981Z,98577.91
2019-02-06T16:00:21.127Z,98573.23
2019-02-06T16:03:13.328Z,98575.73
2019-02-06T16:06:27.507Z,98568.36
2019-02-06T16:09:39.354Z,98574.74
2019-02-06T16:12:42.946Z,98575.29
2019-02-06T16:15:54.618Z,98579.06
2019-02-06T16:18:56.778Z,98576.16
2019-02-06T16:22:07.056Z,98589.67
2019-02-06T16:24:55.390Z,98591.80
2019-02-06T16:28:00.174Z,98586.07
2019-02-06T16:30:47.951Z,98590.82
2019-02-06T16:34:00.319Z,98592.52
2019-02-06T16:37:17.392Z,98600.59
2019-02-06T16:40:33.430Z,98601.34
2019-02-06T16:43:32.494Z,98609.02
2019-02-06T16:46:36.523Z,98607.41
2019-02-06T16:49:36.470Z,98611.13
2019-02-06T16:53:04.003Z,98612.64
2019-02-06T16:56:11.061Z,98614.61
2019-02-06T16:59:02.762Z,98608.69
2019-02-06T17:02:20.306Z,98613.53
2019-02-06T17:05:31.307Z,98619.80
2019-02-06T17:08:36.717Z,98615.18
2019-02-06T17:11:42.873Z,98614.41
2019-02-06T17:14:55.429Z,98615.30
2019-02-06T17:18:00.746Z,98611.05
2019-02-06T17:21:11.060Z,98614.67
2019-02-06T17:24:20.363Z,98626.51
2019-02-06T17:27:26.043Z,98624.42
2019-02-06T17:30:53.230Z,98627.11
2019-02-06T17:33:49.084Z,98631.59
2019-02-06T17:36:58.497Z,98641.70
2019-02-06T17:40:11.212Z,98636.54
2019-02-06T17:43:16.290Z,98646.64
2019-02-06T17:46:31.588Z,98631.98
2019-02-06T17:49:11.640Z,98639.33
2019-02-06T17:51:53.200Z,98645.47
2019-02-06T17:54:40.112Z,98644.17
2019-02-06T17:57:07.946Z,98645.09
2019-02-06T17:59:36.668Z,98645.14
2019-02-06T18:02:07.273Z,98641.22
2019-02-06T18:04:39.555Z,98649.49
2019-02-06T18:07:07.655Z,98647.41
2019-02-06T18:09:35.770Z,98656.62
2019-02-06T18:12:04.701Z,98654.02
2019-02-06T18:14:32.525Z,98651.41
2019-02-06T18:17:02.158Z,98643.58
2019-02-06T18:19:36.207Z,98651.02
2019-02-06T18:22:04.997Z,98656.33
2019-02-06T18:24:33.087Z,98648.52
2019-02-06T18:27:01.244Z,98646.73
2019-02-06T18:29:29.273Z,98647.20
2019-02-06T18:31:57.399Z,98644.66
2019-02-06T18:34:25.667Z,98656.42
2019-02-06T18:36:54.066Z,98652.91
2019-02-06T18:39:22.131Z,98654.63
2019-02-06T18:41:50.046Z,98657.70
2019-02-06T18:44:18.122Z,98653.41
2019-02-06T18:46:48.075Z,98660.34
2019-02-06T18:49:16.066Z,98656.02
2019-02-06T18:51:44.177Z,98652.97
2019-02-06T18:54:12.249Z,98650.80
2019-02-06T18:56:40.237Z,98650.83
2019-02-06T18:59:08.261Z,98656.03
2019-02-06T19:01:36.281Z,98649.98
2019-02-06T19:04:07.345Z,98656.91
2019-02-06T19:06:35.346Z,98663.45
2019-02-06T19:09:09.357Z,98654.76
2019-02-06T19:11:37.395Z,98656.93
2019-02-06T19:14:05.697Z,98655.65
2019-02-06T19:16:33.773Z,98654.34
2019-02-06T19:19:02.221Z,98651.73
2019-02-06T19:21:29.821Z,98646.09
2019-02-06T19:23:57.943Z,98648.72
2019-02-06T19:26:25.994Z,98646.98
2019-02-06T19:28:54.053Z,98633.10
2019-02-06T19:31:22.030Z,98637.90
2019-02-06T19:33:49.906Z,98643.09
2019-02-06T19:36:17.869Z,98634.86
2019-02-06T19:38:46.243Z,98632.70
2019-02-06T19:41:14.439Z,98628.37
2019-02-06T19:43:42.410Z,98632.27
2019-02-06T19:46:10.335Z,98613.62
2019-02-06T19:48:38.400Z,98627.52
2019-02-06T19:51:06.320Z,98628.36
2019-02-06T19:53:34.316Z,98624.02
2019-02-06T19:56:02.651Z,98619.28
2019-02-06T19:58:30.708Z,98624.03
2019-02-06T20:00:58.555Z,98617.12
2019-02-06T20:03:26.535Z,98627.49
2019-02-06T20:05:54.573Z,98620.58
2019-02-06T20:08:22.598Z,98609.73
2019-02-06T20:10:50.571Z,98619.27
2019-02-06T20:13:18.624Z,98624.91
2019-02-06T20:15:46.630Z,98623.16
2019-02-06T20:18:14.870Z,98617.08
2019-02-06T20:20:42.779Z,98622.30
2019-02-06T20:23:12.066Z,98618.81
2019-02-06T20:25:40.581Z,98617.95
2019-02-06T20:28:08.685Z,98616.20
2019-02-06T20:30:37.891Z,98615.76
2019-02-06T20:33:05.962Z,98613.61
2019-02-06T20:35:34.303Z,98612.30
2019-02-06T20:38:03.368Z,98613.15
2019-02-06T20:40:32.684Z,98614.02
2019-02-06T20:43:00.739Z,98610.10
2019-02-06T20:45:28.699Z,98609.68
2019-02-06T20:47:56.706Z,98611.42
2019-02-06T20:50:28.590Z,98604.03
2019-02-06T20:52:57.272Z,98604.91
2019-02-06T20:55:25.433Z,98609.66
2019-02-06T20:57:54.370Z,98607.06
2019-02-06T21:00:27.140Z,98602.72
2019-02-06T21:02:55.241Z,98598.80
2019-02-06T21:05:23.184Z,98600.92
2019-02-06T21:07:51.157Z,98603.89
2019-02-06T21:10:21.263Z,98603.03
2019-02-06T21:12:49.180Z,98601.70
2019-02-06T21:15:17.126Z,98597.28
2019-02-06T21:17:45.437Z,98601.20
2019-02-06T21:20:15.198Z,98596.91
2019-02-06T21:22:43.564Z,98592.18
2019-02-06T21:25:12.494Z,98585.25
2019-02-06T21:27:40.642Z,98590.02
2019-02-06T21:30:12.782Z,98584.84
2019-02-06T21:32:40.977Z,98579.62
2019-02-06T21:35:08.960Z,98583.98
2019-02-06T21:37:36.778Z,98571.40
2019-02-06T21:40:06.614Z,98567.94
2019-02-06T21:42:35.746Z,98568.34
2019-02-06T21:45:04.378Z,98572.23
2019-02-06T21:47:32.581Z,98570.48
2019-02-06T21:50:00.621Z,98570.91
2019-02-06T21:52:28.639Z,98567.45
2019-02-06T21:54:56.682Z,98562.70
2019-02-06T21:57:24.818Z,98554.41
2019-02-06T21:59:52.691Z,98558.70
2019-02-06T22:02:20.623Z,98553.50
2019-02-06T22:04:48.605Z,98554.39
2019-02-06T22:07:16.553Z,98555.66
2019-02-06T22:09:44.558Z,98554.39
2019-02-06T22:12:12.352Z,98550.04
2019-02-06T22:14:40.955Z,98549.19
2019-02-06T22:17:09.009Z,98556.95
2019-02-06T22:19:37.045Z,98547.88
2019-02-06T22:22:04.975Z,98549.14
2019-02-06T22:24:32.952Z,98550.43
2019-02-06T22:27:01.086Z,98547.41
2019-02-06T22:29:29.094Z,98542.62
2019-02-06T22:31:57.274Z,98539.59
2019-02-06T22:34:25.208Z,98548.68
2019-02-06T22:36:53.314Z,98542.20
2019-02-06T22:39:21.173Z,98543.47
2019-02-06T22:41:49.171Z,98540.87
2019-02-06T22:44:17.010Z,98543.45
2019-02-06T22:46:44.997Z,98535.20
2019-02-06T22:49:13.339Z,98525.62
2019-02-06T22:51:41.220Z,98536.03
2019-02-06T22:54:09.257Z,98536.00
2019-02-06T22:56:37.159Z,98527.30
2019-02-06T22:59:05.114Z,98533.82
2019-02-06T23:01:41.184Z,98532.94
2019-02-06T23:04:09.159Z,98535.97
2019-02-06T23:06:37.209Z,98528.16
2019-02-06T23:09:07.268Z,98526.86
2019-02-06T23:11:35.288Z,98531.59
2019-02-06T23:14:03.408Z,98531.61
2019-02-06T23:16:31.265Z,98528.13
2019-02-06T23:18:59.647Z,98522.09
2019-02-06T23:21:27.795Z,98516.91
2019-02-06T23:23:56.034Z,98508.10
2019-02-06T23:26:24.002Z,98509.28
2019-02-06T23:28:53.108Z,98508.30
2019-02-06T23:31:21.099Z,98514.41
2019-02-06T23:33:49.095Z,98508.00
2019-02-06T23:36:17.092Z,98510.62
2019-02-06T23:38:45.117Z,98504.53
2019-02-06T23:41:12.908Z,98496.77
2019-02-06T23:43:40.930Z,98498.91
2019-02-06T23:46:08.971Z,98501.09
2019-02-06T23:48:37.077Z,98497.17
2019-02-06T23:51:05.274Z,98498.02
2019-02-06T23:53:33.459Z,98487.66
2019-02-06T23:56:01.314Z,98496.73
2019-02-06T23:58:29.405Z,98486.77
